sensor_id;sensor_type;location;lat;lon;timestamp;P1;durP1;ratioP1;P2;durP2;ratioP2
8663;SDS011;4369;47.842;13.096;2023-02-15T00:00:26;12.27;;;10.97;;
8663;SDS011;4369;47.842;13.096;2023-02-15T00:02:53;15.20;;;11.17;;
8663;SDS011;4369;47.842;13.096;2023-02-15T00:05:20;15.03;;;11.30;;
8663;SDS011;4369;47.842;13.096;2023-02-15T00:07:47;13.40;;;11.10;;
8663;SDS011;4369;47.842;13.096;2023-02-15T00:10:13;14.07;;;10.97;;
8663;SDS011;4369;47.842;13.096;2023-02-15T00:12:41;14.67;;;11.37;;
8663;SDS011;4369;47.842;13.096;2023-02-15T00:15:09;13.13;;;11.03;;
8663;SDS011;4369;47.842;13.096;2023-02-15T00:17:38;14.77;;;11.50;;
8663;SDS011;4369;47.842;13.096;2023-02-15T00:20:06;16.40;;;11.97;;
8663;SDS011;4369;47.842;13.096;2023-02-15T00:22:33;16.63;;;11.73;;
8663;SDS011;4369;47.842;13.096;2023-02-15T00:25:00;16.40;;;12.27;;
8663;SDS011;4369;47.842;13.096;2023-02-15T00:27:28;15.93;;;11.63;;
8663;SDS011;4369;47.842;13.096;2023-02-15T00:29:55;16.03;;;11.10;;
8663;SDS011;4369;47.842;13.096;2023-02-15T00:32:22;12.97;;;10.43;;
8663;SDS011;4369;47.842;13.096;2023-02-15T00:34:50;15.80;;;11.37;;
8663;SDS011;4369;47.842;13.096;2023-02-15T00:37:17;14.27;;;10.57;;
8663;SDS011;4369;47.842;13.096;2023-02-15T00:39:44;15.60;;;11.00;;
8663;SDS011;4369;47.842;13.096;2023-02-15T00:42:11;14.57;;;10.77;;
8663;SDS011;4369;47.842;13.096;2023-02-15T00:44:37;15.70;;;10.87;;
8663;SDS011;4369;47.842;13.096;2023-02-15T00:47:04;13.63;;;10.80;;
8663;SDS011;4369;47.842;13.096;2023-02-15T00:49:31;14.20;;;10.97;;
8663;SDS011;4369;47.842;13.096;2023-02-15T00:51:59;13.70;;;10.17;;
8663;SDS011;4369;47.842;13.096;2023-02-15T00:54:26;14.03;;;10.80;;
8663;SDS011;4369;47.842;13.096;2023-02-15T00:56:53;14.70;;;10.47;;
8663;SDS011;4369;47.842;13.096;2023-02-15T00:59:20;13.40;;;10.30;;
8663;SDS011;4369;47.842;13.096;2023-02-15T01:01:46;13.63;;;9.67;;
8663;SDS011;4369;47.842;13.096;2023-02-15T01:04:13;15.23;;;10.70;;
8663;SDS011;4369;47.842;13.096;2023-02-15T01:06:40;13.00;;;10.00;;
8663;SDS011;4369;47.842;13.096;2023-02-15T01:09:08;13.67;;;10.13;;
8663;SDS011;4369;47.842;13.096;2023-02-15T01:11:35;13.40;;;9.63;;
8663;SDS011;4369;47.842;13.096;2023-02-15T01:14:02;15.50;;;10.87;;
8663;SDS011;4369;47.842;13.096;2023-02-15T01:16:30;17.13;;;11.60;;
8663;SDS011;4369;47.842;13.096;2023-02-15T01:18:57;16.30;;;10.80;;
8663;SDS011;4369;47.842;13.096;2023-02-15T01:21:24;15.87;;;11.67;;
8663;SDS011;4369;47.842;13.096;2023-02-15T01:23:51;18.77;;;11.57;;
8663;SDS011;4369;47.842;13.096;2023-02-15T01:26:20;18.03;;;11.17;;
8663;SDS011;4369;47.842;13.096;2023-02-15T01:28:47;17.83;;;12.33;;
8663;SDS011;4369;47.842;13.096;2023-02-15T01:31:15;17.93;;;11.87;;
8663;SDS011;4369;47.842;13.096;2023-02-15T01:33:43;16.40;;;11.33;;
8663;SDS011;4369;47.842;13.096;2023-02-15T01:36:10;16.53;;;11.37;;
8663;SDS011;4369;47.842;13.096;2023-02-15T01:38:36;18.03;;;11.70;;
8663;SDS011;4369;47.842;13.096;2023-02-15T01:41:05;17.27;;;12.03;;
8663;SDS011;4369;47.842;13.096;2023-02-15T01:43:50;17.30;;;11.70;;
8663;SDS011;4369;47.842;13.096;2023-02-15T01:46:19;18.73;;;11.70;;
8663;SDS011;4369;47.842;13.096;2023-02-15T01:48:48;17.60;;;12.10;;
8663;SDS011;4369;47.842;13.096;2023-02-15T01:51:20;19.63;;;11.93;;
8663;SDS011;4369;47.842;13.096;2023-02-15T01:53:51;16.47;;;11.47;;
8663;SDS011;4369;47.842;13.096;2023-02-15T01:56:22;15.53;;;11.00;;
8663;SDS011;4369;47.842;13.096;2023-02-15T01:58:52;13.20;;;10.13;;
8663;SDS011;4369;47.842;13.096;2023-02-15T02:01:22;15.37;;;10.83;;
8663;SDS011;4369;47.842;13.096;2023-02-15T02:03:55;14.47;;;10.50;;
8663;SDS011;4369;47.842;13.096;2023-02-15T02:06:27;19.07;;;12.50;;
8663;SDS011;4369;47.842;13.096;2023-02-15T02:08:55;16.43;;;11.03;;
8663;SDS011;4369;47.842;13.096;2023-02-15T02:11:23;15.27;;;10.40;;
8663;SDS011;4369;47.842;13.096;2023-02-15T02:13:51;16.40;;;11.03;;
8663;SDS011;4369;47.842;13.096;2023-02-15T02:16:20;17.27;;;11.87;;
8663;SDS011;4369;47.842;13.096;2023-02-15T02:18:54;18.07;;;11.97;;
8663;SDS011;4369;47.842;13.096;2023-02-15T02:27:50;16.50;;;11.37;;
8663;SDS011;4369;47.842;13.096;2023-02-15T02:30:40;16.93;;;12.03;;
8663;SDS011;4369;47.842;13.096;2023-02-15T02:33:41;17.60;;;12.20;;
8663;SDS011;4369;47.842;13.096;2023-02-15T02:36:15;15.97;;;11.57;;
8663;SDS011;4369;47.842;13.096;2023-02-15T02:38:49;16.10;;;12.13;;
8663;SDS011;4369;47.842;13.096;2023-02-15T02:41:27;16.33;;;11.37;;
8663;SDS011;4369;47.842;13.096;2023-02-15T02:44:04;16.17;;;11.07;;
8663;SDS011;4369;47.842;13.096;2023-02-15T02:46:37;16.13;;;10.90;;
8663;SDS011;4369;47.842;13.096;2023-02-15T02:49:11;13.73;;;10.67;;
8663;SDS011;4369;47.842;13.096;2023-02-15T02:51:38;16.13;;;11.30;;
8663;SDS011;4369;47.842;13.096;2023-02-15T02:54:05;14.97;;;10.67;;
8663;SDS011;4369;47.842;13.096;2023-02-15T02:56:33;15.93;;;10.77;;
8663;SDS011;4369;47.842;13.096;2023-02-15T02:59:05;13.97;;;10.13;;
8663;SDS011;4369;47.842;13.096;2023-02-15T03:01:37;15.97;;;10.83;;
8663;SDS011;4369;47.842;13.096;2023-02-15T03:04:12;14.63;;;10.73;;
8663;SDS011;4369;47.842;13.096;2023-02-15T03:06:42;16.10;;;10.90;;
8663;SDS011;4369;47.842;13.096;2023-02-15T03:09:14;15.70;;;11.03;;
8663;SDS011;4369;47.842;13.096;2023-02-15T03:11:45;17.77;;;10.97;;
8663;SDS011;4369;47.842;13.096;2023-02-15T03:14:13;18.80;;;11.30;;
8663;SDS011;4369;47.842;13.096;2023-02-15T03:16:42;15.33;;;10.53;;
8663;SDS011;4369;47.842;13.096;2023-02-15T03:19:14;12.63;;;9.63;;
8663;SDS011;4369;47.842;13.096;2023-02-15T03:21:45;13.20;;;9.90;;
8663;SDS011;4369;47.842;13.096;2023-02-15T03:24:23;12.40;;;9.70;;
8663;SDS011;4369;47.842;13.096;2023-02-15T03:26:51;12.07;;;9.47;;
8663;SDS011;4369;47.842;13.096;2023-02-15T03:29:21;11.27;;;9.23;;
8663;SDS011;4369;47.842;13.096;2023-02-15T03:31:53;14.10;;;9.87;;
8663;SDS011;4369;47.842;13.096;2023-02-15T03:34:25;12.70;;;10.03;;
8663;SDS011;4369;47.842;13.096;2023-02-15T03:36:55;12.20;;;9.37;;
8663;SDS011;4369;47.842;13.096;2023-02-15T03:39:30;15.57;;;11.30;;
8663;SDS011;4369;47.842;13.096;2023-02-15T03:42:03;15.27;;;10.93;;
8663;SDS011;4369;47.842;13.096;2023-02-15T03:44:37;16.03;;;10.27;;
8663;SDS011;4369;47.842;13.096;2023-02-15T03:47:11;14.30;;;10.03;;
8663;SDS011;4369;47.842;13.096;2023-02-15T03:49:42;16.17;;;10.70;;
8663;SDS011;4369;47.842;13.096;2023-02-15T03:52:12;14.57;;;10.33;;
8663;SDS011;4369;47.842;13.096;2023-02-15T03:54:41;14.63;;;10.50;;
8663;SDS011;4369;47.842;13.096;2023-02-15T03:57:09;14.83;;;10.20;;
8663;SDS011;4369;47.842;13.096;2023-02-15T03:59:57;13.63;;;10.37;;
8663;SDS011;4369;47.842;13.096;2023-02-15T04:02:44;14.77;;;10.93;;
8663;SDS011;4369;47.842;13.096;2023-02-15T04:05:20;13.70;;;10.03;;
8663;SDS011;4369;47.842;13.096;2023-02-15T04:07:46;15.60;;;10.53;;
8663;SDS011;4369;47.842;13.096;2023-02-15T04:10:13;16.03;;;11.30;;
8663;SDS011;4369;47.842;13.096;2023-02-15T04:12:58;16.10;;;11.03;;
8663;SDS011;4369;47.842;13.096;2023-02-15T04:15:25;16.20;;;11.10;;
8663;SDS011;4369;47.842;13.096;2023-02-15T04:18:09;14.20;;;11.03;;
8663;SDS011;4369;47.842;13.096;2023-02-15T04:20:37;18.70;;;11.13;;
8663;SDS011;4369;47.842;13.096;2023-02-15T04:23:21;21.98;;;13.68;;
8663;SDS011;4369;47.842;13.096;2023-02-15T04:26:06;17.80;;;11.70;;
8663;SDS011;4369;47.842;13.096;2023-02-15T04:28:32;19.57;;;11.77;;
8663;SDS011;4369;47.842;13.096;2023-02-15T04:30:59;19.93;;;11.00;;
8663;SDS011;4369;47.842;13.096;2023-02-15T04:33:26;16.73;;;10.97;;
8663;SDS011;4369;47.842;13.096;2023-02-15T04:35:54;15.93;;;10.90;;
8663;SDS011;4369;47.842;13.096;2023-02-15T04:38:21;16.13;;;11.47;;
8663;SDS011;4369;47.842;13.096;2023-02-15T04:40:49;18.60;;;10.90;;
8663;SDS011;4369;47.842;13.096;2023-02-15T04:43:17;20.23;;;11.53;;
8663;SDS011;4369;47.842;13.096;2023-02-15T04:45:47;17.30;;;11.23;;
8663;SDS011;4369;47.842;13.096;2023-02-15T04:48:15;16.57;;;10.47;;
8663;SDS011;4369;47.842;13.096;2023-02-15T04:50:42;14.90;;;10.80;;
8663;SDS011;4369;47.842;13.096;2023-02-15T04:53:11;14.40;;;10.17;;
8663;SDS011;4369;47.842;13.096;2023-02-15T04:55:38;15.30;;;10.97;;
8663;SDS011;4369;47.842;13.096;2023-02-15T04:58:05;14.77;;;10.47;;
8663;SDS011;4369;47.842;13.096;2023-02-15T05:00:32;12.83;;;9.60;;
8663;SDS011;4369;47.842;13.096;2023-02-15T05:02:59;13.37;;;9.40;;
8663;SDS011;4369;47.842;13.096;2023-02-15T05:05:25;16.33;;;10.53;;
8663;SDS011;4369;47.842;13.096;2023-02-15T05:07:52;14.23;;;9.47;;
8663;SDS011;4369;47.842;13.096;2023-02-15T05:10:20;11.60;;;8.63;;
8663;SDS011;4369;47.842;13.096;2023-02-15T05:12:47;12.03;;;9.30;;
8663;SDS011;4369;47.842;13.096;2023-02-15T05:15:14;12.37;;;9.47;;
8663;SDS011;4369;47.842;13.096;2023-02-15T05:17:41;17.00;;;10.57;;
8663;SDS011;4369;47.842;13.096;2023-02-15T05:20:08;18.67;;;10.73;;
8663;SDS011;4369;47.842;13.096;2023-02-15T05:22:36;17.83;;;10.70;;
8663;SDS011;4369;47.842;13.096;2023-02-15T05:25:03;15.70;;;10.73;;
8663;SDS011;4369;47.842;13.096;2023-02-15T05:27:48;15.50;;;10.13;;
8663;SDS011;4369;47.842;13.096;2023-02-15T05:30:32;12.50;;;9.57;;
8663;SDS011;4369;47.842;13.096;2023-02-15T05:32:59;11.27;;;8.90;;
8663;SDS011;4369;47.842;13.096;2023-02-15T05:35:26;14.63;;;9.87;;
8663;SDS011;4369;47.842;13.096;2023-02-15T05:37:53;14.60;;;10.20;;
8663;SDS011;4369;47.842;13.096;2023-02-15T05:40:20;14.63;;;10.13;;
8663;SDS011;4369;47.842;13.096;2023-02-15T05:42:47;16.30;;;10.43;;
8663;SDS011;4369;47.842;13.096;2023-02-15T05:45:15;13.83;;;10.23;;
8663;SDS011;4369;47.842;13.096;2023-02-15T05:47:42;17.00;;;10.17;;
8663;SDS011;4369;47.842;13.096;2023-02-15T05:50:09;16.97;;;10.67;;
8663;SDS011;4369;47.842;13.096;2023-02-15T05:52:36;18.43;;;11.20;;
8663;SDS011;4369;47.842;13.096;2023-02-15T05:55:04;14.70;;;10.43;;
8663;SDS011;4369;47.842;13.096;2023-02-15T05:57:32;16.70;;;10.87;;
8663;SDS011;4369;47.842;13.096;2023-02-15T06:00:00;17.23;;;11.00;;
8663;SDS011;4369;47.842;13.096;2023-02-15T06:02:29;16.10;;;10.47;;
8663;SDS011;4369;47.842;13.096;2023-02-15T06:04:59;17.63;;;11.77;;
8663;SDS011;4369;47.842;13.096;2023-02-15T06:07:25;18.57;;;11.80;;
8663;SDS011;4369;47.842;13.096;2023-02-15T06:09:52;16.53;;;11.27;;
8663;SDS011;4369;47.842;13.096;2023-02-15T06:12:19;18.07;;;10.77;;
8663;SDS011;4369;47.842;13.096;2023-02-15T06:14:46;16.73;;;10.67;;
8663;SDS011;4369;47.842;13.096;2023-02-15T06:17:14;12.97;;;9.80;;
8663;SDS011;4369;47.842;13.096;2023-02-15T06:19:41;15.50;;;10.77;;
8663;SDS011;4369;47.842;13.096;2023-02-15T06:22:08;19.17;;;10.93;;
8663;SDS011;4369;47.842;13.096;2023-02-15T06:24:35;16.70;;;9.97;;
8663;SDS011;4369;47.842;13.096;2023-02-15T06:27:02;14.10;;;9.83;;
8663;SDS011;4369;47.842;13.096;2023-02-15T06:29:29;15.53;;;10.73;;
8663;SDS011;4369;47.842;13.096;2023-02-15T06:31:56;15.60;;;10.53;;
8663;SDS011;4369;47.842;13.096;2023-02-15T06:34:24;16.73;;;10.60;;
8663;SDS011;4369;47.842;13.096;2023-02-15T06:36:51;17.30;;;11.93;;
8663;SDS011;4369;47.842;13.096;2023-02-15T06:39:18;17.40;;;10.73;;
8663;SDS011;4369;47.842;13.096;2023-02-15T06:41:44;15.70;;;10.40;;
8663;SDS011;4369;47.842;13.096;2023-02-15T06:44:11;17.57;;;11.03;;
8663;SDS011;4369;47.842;13.096;2023-02-15T06:46:38;14.83;;;10.17;;
8663;SDS011;4369;47.842;13.096;2023-02-15T06:49:05;26.77;;;11.00;;
8663;SDS011;4369;47.842;13.096;2023-02-15T06:51:33;16.77;;;11.00;;
8663;SDS011;4369;47.842;13.096;2023-02-15T06:54:00;13.77;;;10.27;;
8663;SDS011;4369;47.842;13.096;2023-02-15T06:56:27;17.67;;;11.73;;
8663;SDS011;4369;47.842;13.096;2023-02-15T06:58:54;16.07;;;10.83;;
8663;SDS011;4369;47.842;13.096;2023-02-15T07:01:21;16.27;;;11.00;;
8663;SDS011;4369;47.842;13.096;2023-02-15T07:03:48;17.57;;;12.17;;
8663;SDS011;4369;47.842;13.096;2023-02-15T07:06:15;21.43;;;11.97;;
8663;SDS011;4369;47.842;13.096;2023-02-15T07:08:43;19.77;;;10.77;;
8663;SDS011;4369;47.842;13.096;2023-02-15T07:11:10;19.07;;;11.27;;
8663;SDS011;4369;47.842;13.096;2023-02-15T07:13:53;19.03;;;12.17;;
8663;SDS011;4369;47.842;13.096;2023-02-15T07:16:20;19.47;;;12.03;;
8663;SDS011;4369;47.842;13.096;2023-02-15T07:18:47;21.83;;;12.33;;
8663;SDS011;4369;47.842;13.096;2023-02-15T07:21:14;18.87;;;12.03;;
8663;SDS011;4369;47.842;13.096;2023-02-15T07:23:41;19.93;;;11.80;;
8663;SDS011;4369;47.842;13.096;2023-02-15T07:26:09;20.23;;;12.80;;
8663;SDS011;4369;47.842;13.096;2023-02-15T07:28:36;21.23;;;12.67;;
8663;SDS011;4369;47.842;13.096;2023-02-15T07:31:04;23.23;;;12.83;;
8663;SDS011;4369;47.842;13.096;2023-02-15T07:33:31;25.43;;;14.23;;
8663;SDS011;4369;47.842;13.096;2023-02-15T07:35:59;26.85;;;16.95;;
8663;SDS011;4369;47.842;13.096;2023-02-15T07:38:27;23.60;;;13.60;;
8663;SDS011;4369;47.842;13.096;2023-02-15T07:40:58;21.67;;;13.13;;
8663;SDS011;4369;47.842;13.096;2023-02-15T07:43:26;25.60;;;13.20;;
8663;SDS011;4369;47.842;13.096;2023-02-15T07:45:53;32.57;;;13.53;;
8663;SDS011;4369;47.842;13.096;2023-02-15T07:48:19;27.10;;;13.30;;
8663;SDS011;4369;47.842;13.096;2023-02-15T07:50:47;30.87;;;14.23;;
8663;SDS011;4369;47.842;13.096;2023-02-15T07:53:14;61.77;;;15.57;;
8663;SDS011;4369;47.842;13.096;2023-02-15T07:55:40;28.27;;;13.90;;
8663;SDS011;4369;47.842;13.096;2023-02-15T07:58:09;30.20;;;14.27;;
8663;SDS011;4369;47.842;13.096;2023-02-15T08:00:35;22.03;;;12.87;;
8663;SDS011;4369;47.842;13.096;2023-02-15T08:03:22;21.10;;;12.83;;
8663;SDS011;4369;47.842;13.096;2023-02-15T08:05:54;22.27;;;13.40;;
8663;SDS011;4369;47.842;13.096;2023-02-15T08:08:22;25.67;;;14.27;;
8663;SDS011;4369;47.842;13.096;2023-02-15T08:10:58;24.80;;;14.10;;
8663;SDS011;4369;47.842;13.096;2023-02-15T08:13:45;25.43;;;13.50;;
8663;SDS011;4369;47.842;13.096;2023-02-15T08:16:24;20.10;;;13.27;;
8663;SDS011;4369;47.842;13.096;2023-02-15T08:18:52;22.40;;;13.90;;
8663;SDS011;4369;47.842;13.096;2023-02-15T08:21:20;21.20;;;12.73;;
8663;SDS011;4369;47.842;13.096;2023-02-15T08:23:47;19.23;;;12.57;;
8663;SDS011;4369;47.842;13.096;2023-02-15T08:26:14;20.77;;;12.87;;
8663;SDS011;4369;47.842;13.096;2023-02-15T08:28:41;17.60;;;12.03;;
8663;SDS011;4369;47.842;13.096;2023-02-15T08:31:10;25.60;;;12.87;;
8663;SDS011;4369;47.842;13.096;2023-02-15T08:33:39;20.40;;;13.20;;
8663;SDS011;4369;47.842;13.096;2023-02-15T08:36:08;26.33;;;13.47;;
8663;SDS011;4369;47.842;13.096;2023-02-15T08:38:36;22.53;;;13.70;;
8663;SDS011;4369;47.842;13.096;2023-02-15T08:41:10;20.83;;;13.23;;
8663;SDS011;4369;47.842;13.096;2023-02-15T08:43:38;20.57;;;13.03;;
8663;SDS011;4369;47.842;13.096;2023-02-15T08:46:06;19.50;;;12.77;;
8663;SDS011;4369;47.842;13.096;2023-02-15T08:48:34;18.17;;;13.17;;
8663;SDS011;4369;47.842;13.096;2023-02-15T08:51:05;18.47;;;12.57;;
8663;SDS011;4369;47.842;13.096;2023-02-15T08:53:33;23.50;;;13.40;;
8663;SDS011;4369;47.842;13.096;2023-02-15T08:56:00;21.03;;;13.73;;
8663;SDS011;4369;47.842;13.096;2023-02-15T08:58:27;21.70;;;13.57;;
8663;SDS011;4369;47.842;13.096;2023-02-15T09:00:55;18.57;;;12.87;;
8663;SDS011;4369;47.842;13.096;2023-02-15T09:03:22;19.37;;;13.07;;
8663;SDS011;4369;47.842;13.096;2023-02-15T09:05:53;22.43;;;13.80;;
8663;SDS011;4369;47.842;13.096;2023-02-15T09:08:23;19.70;;;12.43;;
8663;SDS011;4369;47.842;13.096;2023-02-15T09:10:50;20.73;;;13.30;;
8663;SDS011;4369;47.842;13.096;2023-02-15T09:13:17;18.27;;;12.33;;
8663;SDS011;4369;47.842;13.096;2023-02-15T09:15:44;19.83;;;12.03;;
8663;SDS011;4369;47.842;13.096;2023-02-15T09:18:12;20.03;;;12.93;;
8663;SDS011;4369;47.842;13.096;2023-02-15T09:20:42;17.27;;;12.63;;
8663;SDS011;4369;47.842;13.096;2023-02-15T09:23:10;19.50;;;11.67;;
8663;SDS011;4369;47.842;13.096;2023-02-15T09:25:37;17.40;;;11.67;;
8663;SDS011;4369;47.842;13.096;2023-02-15T09:28:04;20.63;;;12.70;;
8663;SDS011;4369;47.842;13.096;2023-02-15T09:30:31;25.60;;;13.73;;
8663;SDS011;4369;47.842;13.096;2023-02-15T09:32:58;18.40;;;12.73;;
8663;SDS011;4369;47.842;13.096;2023-02-15T09:35:24;18.73;;;12.57;;
8663;SDS011;4369;47.842;13.096;2023-02-15T09:37:51;23.23;;;13.80;;
8663;SDS011;4369;47.842;13.096;2023-02-15T09:40:19;22.93;;;12.63;;
8663;SDS011;4369;47.842;13.096;2023-02-15T09:42:53;24.53;;;12.73;;
8663;SDS011;4369;47.842;13.096;2023-02-15T09:45:41;19.03;;;12.70;;
8663;SDS011;4369;47.842;13.096;2023-02-15T09:48:40;22.00;;;12.67;;
8663;SDS011;4369;47.842;13.096;2023-02-15T09:51:13;19.30;;;12.27;;
8663;SDS011;4369;47.842;13.096;2023-02-15T09:53:58;16.37;;;11.83;;
8663;SDS011;4369;47.842;13.096;2023-02-15T09:56:39;15.40;;;12.00;;
8663;SDS011;4369;47.842;13.096;2023-02-15T09:59:10;17.20;;;12.57;;
8663;SDS011;4369;47.842;13.096;2023-02-15T10:01:43;16.40;;;12.17;;
8663;SDS011;4369;47.842;13.096;2023-02-15T10:04:25;28.83;;;13.37;;
8663;SDS011;4369;47.842;13.096;2023-02-15T10:07:07;16.47;;;12.57;;
8663;SDS011;4369;47.842;13.096;2023-02-15T10:09:54;17.33;;;12.20;;
8663;SDS011;4369;47.842;13.096;2023-02-15T10:12:35;18.10;;;11.67;;
8663;SDS011;4369;47.842;13.096;2023-02-15T10:15:16;26.13;;;13.63;;
8663;SDS011;4369;47.842;13.096;2023-02-15T10:18:01;27.90;;;13.83;;
8663;SDS011;4369;47.842;13.096;2023-02-15T10:20:40;17.13;;;12.47;;
8663;SDS011;4369;47.842;13.096;2023-02-15T10:23:21;18.63;;;13.27;;
8663;SDS011;4369;47.842;13.096;2023-02-15T10:26:15;18.20;;;12.83;;
8663;SDS011;4369;47.842;13.096;2023-02-15T10:28:46;18.13;;;12.97;;
8663;SDS011;4369;47.842;13.096;2023-02-15T10:31:19;17.37;;;12.90;;
8663;SDS011;4369;47.842;13.096;2023-02-15T10:33:53;18.50;;;13.07;;
8663;SDS011;4369;47.842;13.096;2023-02-15T10:36:36;19.87;;;13.17;;
8663;SDS011;4369;47.842;13.096;2023-02-15T10:39:16;18.37;;;12.77;;
8663;SDS011;4369;47.842;13.096;2023-02-15T10:41:50;16.07;;;12.40;;
8663;SDS011;4369;47.842;13.096;2023-02-15T10:44:31;20.23;;;13.47;;
8663;SDS011;4369;47.842;13.096;2023-02-15T10:47:18;17.93;;;12.93;;
8663;SDS011;4369;47.842;13.096;2023-02-15T10:50:04;22.03;;;13.33;;
8663;SDS011;4369;47.842;13.096;2023-02-15T10:52:42;17.07;;;12.70;;
8663;SDS011;4369;47.842;13.096;2023-02-15T10:55:24;17.63;;;12.60;;
8663;SDS011;4369;47.842;13.096;2023-02-15T10:57:59;17.80;;;13.17;;
8663;SDS011;4369;47.842;13.096;2023-02-15T11:00:35;16.97;;;12.73;;
8663;SDS011;4369;47.842;13.096;2023-02-15T11:03:20;18.90;;;12.80;;
8663;SDS011;4369;47.842;13.096;2023-02-15T11:05:58;15.63;;;11.70;;
8663;SDS011;4369;47.842;13.096;2023-02-15T11:08:32;14.37;;;11.43;;
8663;SDS011;4369;47.842;13.096;2023-02-15T11:11:02;15.40;;;11.00;;
8663;SDS011;4369;47.842;13.096;2023-02-15T11:13:33;15.53;;;11.53;;
8663;SDS011;4369;47.842;13.096;2023-02-15T11:16:07;14.27;;;10.47;;
8663;SDS011;4369;47.842;13.096;2023-02-15T11:18:39;18.97;;;11.27;;
8663;SDS011;4369;47.842;13.096;2023-02-15T11:21:09;16.87;;;10.43;;
8663;SDS011;4369;47.842;13.096;2023-02-15T11:23:44;13.13;;;10.00;;
8663;SDS011;4369;47.842;13.096;2023-02-15T11:26:11;11.67;;;9.87;;
8663;SDS011;4369;47.842;13.096;2023-02-15T11:28:42;13.13;;;9.97;;
8663;SDS011;4369;47.842;13.096;2023-02-15T11:31:15;13.47;;;9.63;;
8663;SDS011;4369;47.842;13.096;2023-02-15T11:33:44;10.90;;;9.80;;
8663;SDS011;4369;47.842;13.096;2023-02-15T11:36:15;11.27;;;9.13;;
8663;SDS011;4369;47.842;13.096;2023-02-15T11:38:45;8.80;;;8.00;;
8663;SDS011;4369;47.842;13.096;2023-02-15T11:41:18;11.13;;;7.90;;
8663;SDS011;4369;47.842;13.096;2023-02-15T11:43:49;9.43;;;8.50;;
8663;SDS011;4369;47.842;13.096;2023-02-15T11:46:21;9.13;;;8.23;;
8663;SDS011;4369;47.842;13.096;2023-02-15T11:48:48;8.98;;;8.07;;
8663;SDS011;4369;47.842;13.096;2023-02-15T11:51:16;9.30;;;8.40;;
8663;SDS011;4369;47.842;13.096;2023-02-15T11:53:45;10.10;;;8.63;;
8663;SDS011;4369;47.842;13.096;2023-02-15T11:56:13;9.80;;;8.77;;
8663;SDS011;4369;47.842;13.096;2023-02-15T11:58:42;8.32;;;7.70;;
8663;SDS011;4369;47.842;13.096;2023-02-15T12:01:14;7.53;;;6.93;;
8663;SDS011;4369;47.842;13.096;2023-02-15T12:03:45;8.00;;;7.30;;
8663;SDS011;4369;47.842;13.096;2023-02-15T12:06:16;8.30;;;7.60;;
8663;SDS011;4369;47.842;13.096;2023-02-15T12:08:50;8.38;;;7.55;;
8663;SDS011;4369;47.842;13.096;2023-02-15T12:11:24;7.88;;;7.18;;
8663;SDS011;4369;47.842;13.096;2023-02-15T12:13:57;7.90;;;7.30;;
8663;SDS011;4369;47.842;13.096;2023-02-15T12:16:25;8.18;;;7.55;;
8663;SDS011;4369;47.842;13.096;2023-02-15T12:18:56;8.98;;;8.07;;
8663;SDS011;4369;47.842;13.096;2023-02-15T12:21:26;7.63;;;6.90;;
8663;SDS011;4369;47.842;13.096;2023-02-15T12:23:56;7.82;;;7.22;;
8663;SDS011;4369;47.842;13.096;2023-02-15T12:26:27;8.23;;;7.40;;
8663;SDS011;4369;47.842;13.096;2023-02-15T12:28:55;8.68;;;7.78;;
8663;SDS011;4369;47.842;13.096;2023-02-15T12:31:27;7.75;;;7.03;;
8663;SDS011;4369;47.842;13.096;2023-02-15T12:33:59;8.57;;;7.78;;
8663;SDS011;4369;47.842;13.096;2023-02-15T12:36:31;7.85;;;7.18;;
8663;SDS011;4369;47.842;13.096;2023-02-15T12:39:19;8.95;;;8.15;;
8663;SDS011;4369;47.842;13.096;2023-02-15T12:42:02;11.68;;;8.85;;
8663;SDS011;4369;47.842;13.096;2023-02-15T12:44:32;9.52;;;8.63;;
8663;SDS011;4369;47.842;13.096;2023-02-15T12:47:02;9.68;;;8.55;;
8663;SDS011;4369;47.842;13.096;2023-02-15T12:49:31;8.88;;;8.13;;
8663;SDS011;4369;47.842;13.096;2023-02-15T12:51:59;9.52;;;8.18;;
8663;SDS011;4369;47.842;13.096;2023-02-15T12:54:31;13.20;;;8.57;;
8663;SDS011;4369;47.842;13.096;2023-02-15T12:57:14;17.45;;;9.63;;
8663;SDS011;4369;47.842;13.096;2023-02-15T12:59:52;15.45;;;10.38;;
8663;SDS011;4369;47.842;13.096;2023-02-15T13:02:22;11.70;;;10.65;;
8663;SDS011;4369;47.842;13.096;2023-02-15T13:04:56;15.05;;;12.52;;
8663;SDS011;4369;47.842;13.096;2023-02-15T13:07:30;16.67;;;13.65;;
8663;SDS011;4369;47.842;13.096;2023-02-15T13:09:58;15.10;;;13.02;;
8663;SDS011;4369;47.842;13.096;2023-02-15T13:12:26;15.35;;;13.65;;
8663;SDS011;4369;47.842;13.096;2023-02-15T13:14:55;14.88;;;13.25;;
8663;SDS011;4369;47.842;13.096;2023-02-15T13:17:28;16.08;;;13.02;;
8663;SDS011;4369;47.842;13.096;2023-02-15T13:20:00;16.83;;;14.32;;
8663;SDS011;4369;47.842;13.096;2023-02-15T13:22:31;16.05;;;13.05;;
8663;SDS011;4369;47.842;13.096;2023-02-15T13:25:04;23.33;;;15.48;;
8663;SDS011;4369;47.842;13.096;2023-02-15T13:27:39;18.55;;;14.27;;
8663;SDS011;4369;47.842;13.096;2023-02-15T13:30:13;21.05;;;14.63;;
8663;SDS011;4369;47.842;13.096;2023-02-15T13:32:46;18.23;;;14.45;;
8663;SDS011;4369;47.842;13.096;2023-02-15T13:35:17;17.30;;;13.85;;
8663;SDS011;4369;47.842;13.096;2023-02-15T13:37:49;18.25;;;13.85;;
8663;SDS011;4369;47.842;13.096;2023-02-15T13:40:27;18.42;;;13.75;;
8663;SDS011;4369;47.842;13.096;2023-02-15T13:43:00;19.80;;;14.80;;
8663;SDS011;4369;47.842;13.096;2023-02-15T13:45:36;17.73;;;13.50;;
8663;SDS011;4369;47.842;13.096;2023-02-15T13:48:17;16.67;;;13.67;;
8663;SDS011;4369;47.842;13.096;2023-02-15T13:50:59;22.40;;;14.97;;
8663;SDS011;4369;47.842;13.096;2023-02-15T13:53:42;17.30;;;14.27;;
8663;SDS011;4369;47.842;13.096;2023-02-15T13:56:28;18.13;;;14.30;;
8663;SDS011;4369;47.842;13.096;2023-02-15T13:59:11;18.20;;;13.47;;
8663;SDS011;4369;47.842;13.096;2023-02-15T14:01:49;19.07;;;13.73;;
8663;SDS011;4369;47.842;13.096;2023-02-15T14:07:41;17.43;;;13.77;;
8663;SDS011;4369;47.842;13.096;2023-02-15T14:10:25;18.83;;;13.47;;
8663;SDS011;4369;47.842;13.096;2023-02-15T14:13:05;17.90;;;13.30;;
8663;SDS011;4369;47.842;13.096;2023-02-15T14:15:47;21.93;;;14.10;;
8663;SDS011;4369;47.842;13.096;2023-02-15T14:18:19;19.02;;;13.85;;
8663;SDS011;4369;47.842;13.096;2023-02-15T14:20:57;22.03;;;13.57;;
8663;SDS011;4369;47.842;13.096;2023-02-15T14:23:36;18.10;;;14.00;;
8663;SDS011;4369;47.842;13.096;2023-02-15T14:26:11;17.35;;;13.57;;
8663;SDS011;4369;47.842;13.096;2023-02-15T14:28:46;23.40;;;14.63;;
8663;SDS011;4369;47.842;13.096;2023-02-15T14:31:19;20.92;;;14.40;;
8663;SDS011;4369;47.842;13.096;2023-02-15T14:33:53;25.17;;;15.25;;
8663;SDS011;4369;47.842;13.096;2023-02-15T14:36:22;18.75;;;13.25;;
8663;SDS011;4369;47.842;13.096;2023-02-15T14:38:59;20.70;;;14.38;;
8663;SDS011;4369;47.842;13.096;2023-02-15T14:41:56;22.40;;;14.00;;
8663;SDS011;4369;47.842;13.096;2023-02-15T14:44:27;21.52;;;14.40;;
8663;SDS011;4369;47.842;13.096;2023-02-15T14:47:01;19.67;;;14.53;;
8663;SDS011;4369;47.842;13.096;2023-02-15T14:49:52;19.27;;;13.63;;
8663;SDS011;4369;47.842;13.096;2023-02-15T14:52:19;20.17;;;13.83;;
8663;SDS011;4369;47.842;13.096;2023-02-15T14:54:54;17.07;;;13.53;;
8663;SDS011;4369;47.842;13.096;2023-02-15T14:57:25;17.73;;;13.67;;
8663;SDS011;4369;47.842;13.096;2023-02-15T14:59:57;14.43;;;12.90;;
8663;SDS011;4369;47.842;13.096;2023-02-15T15:02:26;16.90;;;13.53;;
8663;SDS011;4369;47.842;13.096;2023-02-15T15:04:58;18.83;;;14.30;;
8663;SDS011;4369;47.842;13.096;2023-02-15T15:07:35;20.00;;;13.73;;
8663;SDS011;4369;47.842;13.096;2023-02-15T15:10:07;22.77;;;15.10;;
8663;SDS011;4369;47.842;13.096;2023-02-15T15:22:33;20.73;;;14.17;;